ADDS METAR Data

Data at: 0747 UTC 24 Oct 2017

METAR for:KAUG (Augusta/State Arpt, ME, US)
Text:KAUG 240735Z AUTO 16008KT 1/2SM FG VV002 14/14 A3013 RMK AO2 T01440144
Temperature: 14.4°C ( 58°F)
Dewpoint: 14.4°C ( 58°F) [RH = 100%]
Pressure (altimeter):30.13 inches Hg (1020.4 mb)
Winds:from the SSE (160 degrees) at 9 MPH (8 knots; 4.1 m/s)
Visibility: 0.50 sm ( 0.80 km)
Ceiling:indefinite ceiling with vertical visibility of 200 feet AGL
Clouds:obscured sky
Weather:FG (fog)
QC Flag:automated observation with no human augmentation